sensor_id;sensor_type;location;lat;lon;timestamp;pressure;altitude;pressure_sealevel;temperature;humidity
10732;BME280;5417;42.686;23.244;2023-05-20T00:03:21;94594.28;;;14.42;nan
10732;BME280;5417;42.686;23.244;2023-05-20T00:09:21;94598.75;;;14.32;nan
10732;BME280;5417;42.686;23.244;2023-05-20T00:11:47;94595.31;;;14.21;nan
10732;BME280;5417;42.686;23.244;2023-05-20T00:14:14;94587.06;;;14.16;nan
10732;BME280;5417;42.686;23.244;2023-05-20T00:16:43;94582.94;;;14.14;nan
10732;BME280;5417;42.686;23.244;2023-05-20T00:20:04;94584.31;;;14.18;nan
10732;BME280;5417;42.686;23.244;2023-05-20T00:22:47;94588.88;;;14.16;nan
10732;BME280;5417;42.686;23.244;2023-05-20T00:25:15;94570.16;;;14.01;nan
10732;BME280;5417;42.686;23.244;2023-05-20T00:31:53;94584.50;;;14.07;nan
10732;BME280;5417;42.686;23.244;2023-05-20T00:34:05;94587.25;;;14.05;nan
10732;BME280;5417;42.686;23.244;2023-05-20T00:36:32;94592.47;;;14.05;nan
10732;BME280;5417;42.686;23.244;2023-05-20T00:38:59;94582.00;;;14.05;nan
10732;BME280;5417;42.686;23.244;2023-05-20T00:41:44;94578.81;;;14.02;nan
10732;BME280;5417;42.686;23.244;2023-05-20T00:44:37;94578.13;;;14.00;nan
10732;BME280;5417;42.686;23.244;2023-05-20T00:47:28;94573.03;;;13.98;nan
10732;BME280;5417;42.686;23.244;2023-05-20T00:49:56;94571.41;;;13.97;nan
10732;BME280;5417;42.686;23.244;2023-05-20T00:52:47;94577.44;;;13.98;nan
10732;BME280;5417;42.686;23.244;2023-05-20T00:55:18;94569.47;;;13.99;nan
10732;BME280;5417;42.686;23.244;2023-05-20T00:58:01;94565.59;;;14.03;nan
10732;BME280;5417;42.686;23.244;2023-05-20T01:00:28;94569.47;;;13.99;nan
10732;BME280;5417;42.686;23.244;2023-05-20T01:03:49;94569.88;;;13.95;nan
10732;BME280;5417;42.686;23.244;2023-05-20T01:06:06;94572.78;;;13.92;nan
10732;BME280;5417;42.686;23.244;2023-05-20T01:08:33;94566.03;;;13.89;nan
10732;BME280;5417;42.686;23.244;2023-05-20T01:11:03;94546.34;;;13.85;nan
10732;BME280;5417;42.686;23.244;2023-05-20T01:13:37;94557.91;;;13.92;nan
10732;BME280;5417;42.686;23.244;2023-05-20T01:16:06;94561.22;;;13.94;nan
10732;BME280;5417;42.686;23.244;2023-05-20T01:20:02;94569.75;;;13.96;nan
10732;BME280;5417;42.686;23.244;2023-05-20T01:22:29;94570.84;;;13.94;nan
10732;BME280;5417;42.686;23.244;2023-05-20T01:24:56;94572.25;;;13.88;nan
10732;BME280;5417;42.686;23.244;2023-05-20T01:27:23;94567.16;;;13.86;nan
10732;BME280;5417;42.686;23.244;2023-05-20T01:30:11;94562.88;;;13.85;nan
10732;BME280;5417;42.686;23.244;2023-05-20T01:32:40;94565.50;;;13.85;nan
10732;BME280;5417;42.686;23.244;2023-05-20T01:35:08;94564.00;;;13.83;nan
10732;BME280;5417;42.686;23.244;2023-05-20T01:37:38;94564.81;;;13.83;nan
10732;BME280;5417;42.686;23.244;2023-05-20T01:41:00;94565.78;;;13.82;nan
10732;BME280;5417;42.686;23.244;2023-05-20T01:43:17;94554.91;;;13.77;nan
10732;BME280;5417;42.686;23.244;2023-05-20T01:47:06;94553.41;;;13.75;nan
10732;BME280;5417;42.686;23.244;2023-05-20T01:52:34;94538.69;;;13.64;nan
10732;BME280;5417;42.686;23.244;2023-05-20T01:55:02;94558.34;;;13.78;nan
10732;BME280;5417;42.686;23.244;2023-05-20T01:57:29;94558.22;;;13.79;nan
10732;BME280;5417;42.686;23.244;2023-05-20T01:59:56;94557.66;;;13.76;nan
10732;BME280;5417;42.686;23.244;2023-05-20T02:02:23;94559.19;;;13.78;nan
10732;BME280;5417;42.686;23.244;2023-05-20T02:04:50;94547.34;;;13.74;nan
10732;BME280;5417;42.686;23.244;2023-05-20T02:11:07;94556.69;;;13.86;nan
10732;BME280;5417;42.686;23.244;2023-05-20T02:32:52;94548.88;;;13.57;nan
10732;BME280;5417;42.686;23.244;2023-05-20T02:35:19;94533.72;;;13.51;nan
10732;BME280;5417;42.686;23.244;2023-05-20T02:46:48;94548.88;;;13.48;nan
10732;BME280;5417;42.686;23.244;2023-05-20T02:49:16;94546.81;;;13.51;nan
10732;BME280;5417;42.686;23.244;2023-05-20T02:51:43;94546.13;;;13.49;nan
10732;BME280;5417;42.686;23.244;2023-05-20T03:04:25;94550.53;;;13.39;nan
10732;BME280;5417;42.686;23.244;2023-05-20T03:07:16;94558.50;;;13.38;nan
10732;BME280;5417;42.686;23.244;2023-05-20T03:14:12;94565.53;;;13.37;nan
10732;BME280;5417;42.686;23.244;2023-05-20T03:20:03;94568.00;;;13.48;nan
10732;BME280;5417;42.686;23.244;2023-05-20T03:22:32;94561.13;;;13.57;nan
10732;BME280;5417;42.686;23.244;2023-05-20T03:24:59;94570.22;;;13.72;nan
10732;BME280;5417;42.686;23.244;2023-05-20T03:28:13;94571.88;;;13.64;nan
10732;BME280;5417;42.686;23.244;2023-05-20T03:31:59;94569.94;;;13.56;nan
10732;BME280;5417;42.686;23.244;2023-05-20T03:33:58;94577.09;;;13.54;nan
10732;BME280;5417;42.686;23.244;2023-05-20T03:36:26;94576.28;;;13.53;nan
10732;BME280;5417;42.686;23.244;2023-05-20T04:06:06;94597.94;;;14.21;nan
10732;BME280;5417;42.686;23.244;2023-05-20T04:08:33;94584.84;;;14.21;nan
10732;BME280;5417;42.686;23.244;2023-05-20T04:11:00;94587.97;;;14.44;nan
10732;BME280;5417;42.686;23.244;2023-05-20T04:13:27;94588.88;;;14.63;nan
10732;BME280;5417;42.686;23.244;2023-05-20T04:16:18;94600.06;;;14.65;nan
10732;BME280;5417;42.686;23.244;2023-05-20T04:18:45;94596.16;;;14.69;nan
10732;BME280;5417;42.686;23.244;2023-05-20T04:21:14;94599.84;;;14.76;nan
10732;BME280;5417;42.686;23.244;2023-05-20T04:24:34;94605.69;;;14.70;nan
10732;BME280;5417;42.686;23.244;2023-05-20T04:30:41;94601.91;;;14.45;nan
10732;BME280;5417;42.686;23.244;2023-05-20T04:33:30;94602.13;;;14.51;nan
10732;BME280;5417;42.686;23.244;2023-05-20T04:35:57;94591.50;;;14.63;nan
10732;BME280;5417;42.686;23.244;2023-05-20T04:38:26;94590.88;;;14.78;nan
10732;BME280;5417;42.686;23.244;2023-05-20T04:40:54;94597.41;;;14.92;nan
10732;BME280;5417;42.686;23.244;2023-05-20T04:43:46;94602.22;;;15.24;nan
10732;BME280;5417;42.686;23.244;2023-05-20T04:46:14;94610.16;;;15.77;nan
10732;BME280;5417;42.686;23.244;2023-05-20T04:49:22;94599.16;;;16.69;nan
10732;BME280;5417;42.686;23.244;2023-05-20T04:51:52;94598.38;;;17.78;nan
10732;BME280;5417;42.686;23.244;2023-05-20T04:54:33;94596.25;;;18.94;nan
10732;BME280;5417;42.686;23.244;2023-05-20T04:57:10;94594.44;;;20.10;nan
10732;BME280;5417;42.686;23.244;2023-05-20T05:00:07;94589.84;;;21.08;nan
10732;BME280;5417;42.686;23.244;2023-05-20T05:02:42;94592.47;;;22.10;nan
10732;BME280;5417;42.686;23.244;2023-05-20T05:05:11;94589.44;;;22.69;nan
10732;BME280;5417;42.686;23.244;2023-05-20T05:07:38;94588.56;;;23.24;nan
10732;BME280;5417;42.686;23.244;2023-05-20T05:10:07;94591.56;;;23.49;nan
10732;BME280;5417;42.686;23.244;2023-05-20T05:12:58;94599.59;;;23.69;nan
10732;BME280;5417;42.686;23.244;2023-05-20T05:16:33;94597.25;;;23.94;nan
10732;BME280;5417;42.686;23.244;2023-05-20T05:19:00;94587.22;;;24.03;nan
10732;BME280;5417;42.686;23.244;2023-05-20T05:21:27;94577.81;;;24.13;nan
10732;BME280;5417;42.686;23.244;2023-05-20T05:23:54;94586.00;;;24.05;nan
10732;BME280;5417;42.686;23.244;2023-05-20T05:26:22;94591.47;;;23.90;nan
10732;BME280;5417;42.686;23.244;2023-05-20T05:28:49;94591.63;;;23.69;nan
10732;BME280;5417;42.686;23.244;2023-05-20T05:31:16;94579.44;;;23.40;nan
10732;BME280;5417;42.686;23.244;2023-05-20T05:33:43;94577.19;;;23.37;nan
10732;BME280;5417;42.686;23.244;2023-05-20T05:36:10;94579.69;;;23.45;nan
10732;BME280;5417;42.686;23.244;2023-05-20T05:38:38;94573.94;;;23.42;nan
10732;BME280;5417;42.686;23.244;2023-05-20T05:41:17;94578.81;;;23.38;nan
10732;BME280;5417;42.686;23.244;2023-05-20T05:43:46;94577.31;;;23.57;nan
10732;BME280;5417;42.686;23.244;2023-05-20T05:46:12;94587.06;;;23.50;nan
10732;BME280;5417;42.686;23.244;2023-05-20T05:48:39;94582.50;;;23.37;nan
10732;BME280;5417;42.686;23.244;2023-05-20T05:51:16;94572.47;;;23.33;nan
10732;BME280;5417;42.686;23.244;2023-05-20T05:53:44;94573.56;;;23.51;nan
10732;BME280;5417;42.686;23.244;2023-05-20T05:56:11;94570.63;;;23.33;nan
10732;BME280;5417;42.686;23.244;2023-05-20T05:58:38;94562.25;;;23.29;nan
10732;BME280;5417;42.686;23.244;2023-05-20T06:01:06;94578.63;;;23.40;nan
10732;BME280;5417;42.686;23.244;2023-05-20T06:03:33;94579.19;;;23.28;nan
10732;BME280;5417;42.686;23.244;2023-05-20T06:06:05;94571.63;;;23.25;nan
10732;BME280;5417;42.686;23.244;2023-05-20T06:08:32;94567.25;;;23.52;nan
10732;BME280;5417;42.686;23.244;2023-05-20T06:10:59;94574.88;;;23.69;nan
10732;BME280;5417;42.686;23.244;2023-05-20T06:13:26;94579.34;;;23.62;nan
10732;BME280;5417;42.686;23.244;2023-05-20T06:15:52;94563.22;;;23.70;nan
10732;BME280;5417;42.686;23.244;2023-05-20T06:18:21;94568.16;;;23.79;nan
10732;BME280;5417;42.686;23.244;2023-05-20T06:20:55;94571.59;;;23.73;nan
10732;BME280;5417;42.686;23.244;2023-05-20T06:23:22;94571.44;;;23.88;nan
10732;BME280;5417;42.686;23.244;2023-05-20T06:25:51;94575.56;;;23.97;nan
10732;BME280;5417;42.686;23.244;2023-05-20T06:28:19;94566.16;;;24.08;nan
10732;BME280;5417;42.686;23.244;2023-05-20T06:30:46;94561.88;;;24.20;nan
10732;BME280;5417;42.686;23.244;2023-05-20T06:33:35;94560.63;;;24.22;nan
10732;BME280;5417;42.686;23.244;2023-05-20T06:36:23;94545.69;;;24.21;nan
10732;BME280;5417;42.686;23.244;2023-05-20T06:38:52;94524.41;;;24.21;nan
10732;BME280;5417;42.686;23.244;2023-05-20T06:41:44;94539.16;;;24.44;nan
10732;BME280;5417;42.686;23.244;2023-05-20T06:45:37;94531.00;;;24.52;nan
10732;BME280;5417;42.686;23.244;2023-05-20T06:48:30;94540.81;;;24.51;nan
10732;BME280;5417;42.686;23.244;2023-05-20T06:50:51;94527.28;;;24.60;nan
10732;BME280;5417;42.686;23.244;2023-05-20T06:53:18;94533.44;;;24.60;nan
10732;BME280;5417;42.686;23.244;2023-05-20T06:56:11;94535.22;;;24.79;nan
10732;BME280;5417;42.686;23.244;2023-05-20T06:58:38;94533.59;;;24.78;nan
10732;BME280;5417;42.686;23.244;2023-05-20T07:01:05;94545.47;;;24.76;nan
10732;BME280;5417;42.686;23.244;2023-05-20T07:03:32;94547.56;;;24.61;nan
10732;BME280;5417;42.686;23.244;2023-05-20T07:06:00;94545.50;;;24.69;nan
10732;BME280;5417;42.686;23.244;2023-05-20T07:08:29;94538.94;;;24.72;nan
10732;BME280;5417;42.686;23.244;2023-05-20T07:11:51;94542.78;;;24.89;nan
10732;BME280;5417;42.686;23.244;2023-05-20T07:14:11;94546.09;;;24.71;nan
10732;BME280;5417;42.686;23.244;2023-05-20T07:16:38;94528.50;;;24.70;nan
10732;BME280;5417;42.686;23.244;2023-05-20T07:19:05;94538.34;;;24.57;nan
10732;BME280;5417;42.686;23.244;2023-05-20T07:21:33;94537.50;;;24.69;nan
10732;BME280;5417;42.686;23.244;2023-05-20T07:24:00;94524.97;;;24.83;nan
10732;BME280;5417;42.686;23.244;2023-05-20T07:27:03;94533.59;;;24.72;nan
10732;BME280;5417;42.686;23.244;2023-05-20T07:29:23;94538.97;;;24.52;nan
10732;BME280;5417;42.686;23.244;2023-05-20T07:31:50;94527.50;;;24.51;nan
10732;BME280;5417;42.686;23.244;2023-05-20T07:34:38;94529.09;;;24.72;nan
10732;BME280;5417;42.686;23.244;2023-05-20T07:40:00;94527.53;;;25.23;nan
10732;BME280;5417;42.686;23.244;2023-05-20T07:42:27;94534.41;;;25.43;nan
10732;BME280;5417;42.686;23.244;2023-05-20T07:45:05;94534.22;;;25.38;nan
10732;BME280;5417;42.686;23.244;2023-05-20T07:47:33;94538.81;;;25.25;nan
10732;BME280;5417;42.686;23.244;2023-05-20T07:50:00;94528.38;;;25.23;nan
10732;BME280;5417;42.686;23.244;2023-05-20T07:52:27;94538.16;;;25.29;nan
10732;BME280;5417;42.686;23.244;2023-05-20T07:58:08;94529.66;;;25.07;nan
10732;BME280;5417;42.686;23.244;2023-05-20T08:00:36;94508.16;;;25.02;nan
10732;BME280;5417;42.686;23.244;2023-05-20T08:03:05;94526.56;;;24.97;nan
10732;BME280;5417;42.686;23.244;2023-05-20T08:05:45;94518.19;;;24.87;nan
10732;BME280;5417;42.686;23.244;2023-05-20T08:08:26;94517.81;;;24.83;nan
10732;BME280;5417;42.686;23.244;2023-05-20T08:10:55;94517.19;;;24.81;nan
10732;BME280;5417;42.686;23.244;2023-05-20T08:13:23;94512.88;;;24.87;nan
10732;BME280;5417;42.686;23.244;2023-05-20T08:16:06;94513.94;;;24.79;nan
10732;BME280;5417;42.686;23.244;2023-05-20T08:18:56;94509.84;;;24.77;nan
10732;BME280;5417;42.686;23.244;2023-05-20T08:21:23;94514.19;;;24.58;nan
10732;BME280;5417;42.686;23.244;2023-05-20T08:23:49;94513.38;;;24.58;nan
10732;BME280;5417;42.686;23.244;2023-05-20T08:26:16;94518.72;;;24.31;nan
10732;BME280;5417;42.686;23.244;2023-05-20T08:28:46;94514.63;;;24.35;nan
10732;BME280;5417;42.686;23.244;2023-05-20T08:31:13;94505.19;;;24.39;nan
10732;BME280;5417;42.686;23.244;2023-05-20T08:33:43;94520.31;;;24.26;nan
10732;BME280;5417;42.686;23.244;2023-05-20T08:36:10;94506.00;;;24.07;nan
10732;BME280;5417;42.686;23.244;2023-05-20T08:38:42;94501.31;;;23.96;nan
10732;BME280;5417;42.686;23.244;2023-05-20T08:41:08;94511.34;;;23.94;nan
10732;BME280;5417;42.686;23.244;2023-05-20T08:44:48;94519.91;;;23.89;nan
10732;BME280;5417;42.686;23.244;2023-05-20T08:46:39;94496.56;;;23.78;nan
10732;BME280;5417;42.686;23.244;2023-05-20T08:49:41;94518.88;;;23.90;nan
10732;BME280;5417;42.686;23.244;2023-05-20T08:52:09;94514.56;;;23.82;nan
10732;BME280;5417;42.686;23.244;2023-05-20T08:55:03;94519.47;;;23.72;nan
10732;BME280;5417;42.686;23.244;2023-05-20T08:57:31;94510.47;;;23.67;nan
10732;BME280;5417;42.686;23.244;2023-05-20T09:00:01;94512.94;;;23.68;nan
10732;BME280;5417;42.686;23.244;2023-05-20T09:02:37;94515.16;;;23.58;nan
10732;BME280;5417;42.686;23.244;2023-05-20T09:05:09;94513.94;;;23.60;nan
10732;BME280;5417;42.686;23.244;2023-05-20T09:07:38;94507.63;;;23.75;nan
10732;BME280;5417;42.686;23.244;2023-05-20T09:10:09;94498.00;;;23.74;nan
10732;BME280;5417;42.686;23.244;2023-05-20T09:12:49;94504.72;;;23.56;nan
10732;BME280;5417;42.686;23.244;2023-05-20T09:15:16;94492.56;;;23.27;nan
10732;BME280;5417;42.686;23.244;2023-05-20T09:18:03;94490.06;;;23.13;nan
10732;BME280;5417;42.686;23.244;2023-05-20T09:20:36;94490.66;;;23.08;nan
10732;BME280;5417;42.686;23.244;2023-05-20T09:23:11;94490.69;;;23.15;nan
10732;BME280;5417;42.686;23.244;2023-05-20T09:25:38;94487.69;;;23.38;nan
10732;BME280;5417;42.686;23.244;2023-05-20T09:28:07;94485.59;;;23.20;nan
10732;BME280;5417;42.686;23.244;2023-05-20T09:37:20;94478.69;;;23.39;nan
10732;BME280;5417;42.686;23.244;2023-05-20T09:39:54;94481.53;;;23.30;nan
10732;BME280;5417;42.686;23.244;2023-05-20T09:42:29;94477.03;;;23.24;nan
10732;BME280;5417;42.686;23.244;2023-05-20T09:44:59;94491.50;;;23.15;nan
10732;BME280;5417;42.686;23.244;2023-05-20T09:48:39;94490.69;;;23.15;nan
10732;BME280;5417;42.686;23.244;2023-05-20T09:50:48;94476.31;;;22.89;nan
10732;BME280;5417;42.686;23.244;2023-05-20T09:53:17;94469.59;;;22.93;nan
10732;BME280;5417;42.686;23.244;2023-05-20T09:56:19;94477.34;;;22.95;nan
10732;BME280;5417;42.686;23.244;2023-05-20T09:58:52;94471.44;;;23.00;nan
10732;BME280;5417;42.686;23.244;2023-05-20T10:01:22;94464.72;;;23.10;nan
10732;BME280;5417;42.686;23.244;2023-05-20T10:03:49;94470.69;;;23.25;nan
10732;BME280;5417;42.686;23.244;2023-05-20T10:06:30;94465.59;;;23.24;nan
10732;BME280;5417;42.686;23.244;2023-05-20T10:12:28;94442.72;;;23.36;nan
10732;BME280;5417;42.686;23.244;2023-05-20T10:15:17;94453.34;;;23.36;nan
10732;BME280;5417;42.686;23.244;2023-05-20T10:17:52;94445.97;;;23.32;nan
10732;BME280;5417;42.686;23.244;2023-05-20T10:20:23;94437.59;;;23.28;nan
10732;BME280;5417;42.686;23.244;2023-05-20T10:22:57;94450.06;;;23.21;nan
10732;BME280;5417;42.686;23.244;2023-05-20T10:25:30;94425.91;;;22.96;nan
10732;BME280;5417;42.686;23.244;2023-05-20T10:28:29;94418.56;;;22.98;nan
10732;BME280;5417;42.686;23.244;2023-05-20T10:31:42;94427.13;;;23.00;nan
10732;BME280;5417;42.686;23.244;2023-05-20T10:34:13;94433.78;;;22.83;nan
10732;BME280;5417;42.686;23.244;2023-05-20T10:37:19;94430.69;;;22.79;nan
10732;BME280;5417;42.686;23.244;2023-05-20T10:39:44;94429.44;;;22.75;nan
10732;BME280;5417;42.686;23.244;2023-05-20T10:43:14;94408.28;;;22.88;nan
10732;BME280;5417;42.686;23.244;2023-05-20T10:49:02;94390.72;;;22.81;nan
10732;BME280;5417;42.686;23.244;2023-05-20T10:51:30;94402.97;;;22.82;nan
10732;BME280;5417;42.686;23.244;2023-05-20T10:53:57;94400.09;;;22.83;nan
10732;BME280;5417;42.686;23.244;2023-05-20T10:59:52;94390.09;;;22.85;nan
10732;BME280;5417;42.686;23.244;2023-05-20T11:02:30;94398.00;;;22.72;nan
10732;BME280;5417;42.686;23.244;2023-05-20T11:05:15;94388.81;;;22.68;nan
10732;BME280;5417;42.686;23.244;2023-05-20T11:07:43;94387.78;;;22.69;nan
10732;BME280;5417;42.686;23.244;2023-05-20T11:13:44;94394.91;;;22.62;nan
10732;BME280;5417;42.686;23.244;2023-05-20T11:16:11;94369.00;;;22.71;nan
10732;BME280;5417;42.686;23.244;2023-05-20T11:18:38;94380.50;;;22.84;nan
10732;BME280;5417;42.686;23.244;2023-05-20T11:21:06;94365.84;;;22.95;nan
10732;BME280;5417;42.686;23.244;2023-05-20T11:23:33;94367.28;;;22.91;nan
10732;BME280;5417;42.686;23.244;2023-05-20T11:26:00;94381.28;;;22.78;nan
10732;BME280;5417;42.686;23.244;2023-05-20T11:28:29;94379.22;;;22.74;nan
10732;BME280;5417;42.686;23.244;2023-05-20T11:31:51;94361.06;;;22.77;nan
10732;BME280;5417;42.686;23.244;2023-05-20T11:34:16;94343.38;;;22.91;nan
10732;BME280;5417;42.686;23.244;2023-05-20T11:36:46;94344.22;;;22.98;nan
10732;BME280;5417;42.686;23.244;2023-05-20T11:39:15;94339.09;;;22.90;nan
10732;BME280;5417;42.686;23.244;2023-05-20T11:41:42;94337.06;;;23.05;nan
10732;BME280;5417;42.686;23.244;2023-05-20T11:44:49;94336.47;;;23.03;nan
10732;BME280;5417;42.686;23.244;2023-05-20T11:47:36;94340.28;;;22.87;nan
10732;BME280;5417;42.686;23.244;2023-05-20T11:50:04;94348.25;;;22.87;nan
10732;BME280;5417;42.686;23.244;2023-05-20T11:52:33;94334.78;;;22.82;nan
10732;BME280;5417;42.686;23.244;2023-05-20T11:55:01;94339.81;;;22.71;nan
10732;BME280;5417;42.686;23.244;2023-05-20T11:57:34;94332.00;;;22.49;nan
10732;BME280;5417;42.686;23.244;2023-05-20T12:00:03;94341.22;;;22.53;nan
10732;BME280;5417;42.686;23.244;2023-05-20T12:02:46;94335.72;;;22.61;nan
10732;BME280;5417;42.686;23.244;2023-05-20T12:05:13;94327.53;;;22.56;nan
10732;BME280;5417;42.686;23.244;2023-05-20T12:07:42;94324.47;;;22.46;nan
10732;BME280;5417;42.686;23.244;2023-05-20T12:10:09;94318.56;;;22.57;nan
10732;BME280;5417;42.686;23.244;2023-05-20T12:12:38;94324.47;;;22.46;nan
10732;BME280;5417;42.686;23.244;2023-05-20T12:15:05;94347.22;;;22.34;nan
10732;BME280;5417;42.686;23.244;2023-05-20T12:17:44;94325.81;;;22.35;nan
10732;BME280;5417;42.686;23.244;2023-05-20T12:20:12;94302.22;;;22.47;nan
10732;BME280;5417;42.686;23.244;2023-05-20T12:22:42;94325.31;;;22.60;nan
10732;BME280;5417;42.686;23.244;2023-05-20T12:25:10;94322.84;;;22.52;nan
10732;BME280;5417;42.686;23.244;2023-05-20T12:28:31;94333.22;;;22.40;nan
10732;BME280;5417;42.686;23.244;2023-05-20T12:31:45;94336.63;;;22.34;nan
10732;BME280;5417;42.686;23.244;2023-05-20T12:37:58;94331.16;;;22.01;nan
10732;BME280;5417;42.686;23.244;2023-05-20T12:40:49;94363.09;;;21.86;nan
10732;BME280;5417;42.686;23.244;2023-05-20T12:43:39;94385.91;;;21.59;nan
10732;BME280;5417;42.686;23.244;2023-05-20T12:46:08;94383.50;;;21.22;nan
10732;BME280;5417;42.686;23.244;2023-05-20T12:48:35;94357.75;;;21.09;nan
10732;BME280;5417;42.686;23.244;2023-05-20T12:51:25;94360.63;;;20.71;nan
10732;BME280;5417;42.686;23.244;2023-05-20T12:53:54;94375.81;;;20.48;nan
10732;BME280;5417;42.686;23.244;2023-05-20T12:57:15;94375.38;;;20.44;nan
10732;BME280;5417;42.686;23.244;2023-05-20T13:00:19;94377.22;;;20.29;nan
10732;BME280;5417;42.686;23.244;2023-05-20T13:02:46;94372.53;;;20.16;nan
10732;BME280;5417;42.686;23.244;2023-05-20T13:05:13;94360.53;;;20.14;nan
10732;BME280;5417;42.686;23.244;2023-05-20T13:17:36;94324.97;;;20.46;nan
10732;BME280;5417;42.686;23.244;2023-05-20T13:20:28;94328.88;;;20.50;nan
10732;BME280;5417;42.686;23.244;2023-05-20T13:22:55;94327.59;;;20.46;nan
10732;BME280;5417;42.686;23.244;2023-05-20T13:25:22;94305.25;;;20.48;nan
10732;BME280;5417;42.686;23.244;2023-05-20T13:31:14;94309.16;;;20.74;nan
10732;BME280;5417;42.686;23.244;2023-05-20T13:33:43;94308.72;;;20.70;nan
10732;BME280;5417;42.686;23.244;2023-05-20T13:37:36;94309.22;;;20.80;nan
10732;BME280;5417;42.686;23.244;2023-05-20T13:39:39;94301.28;;;20.80;nan
10732;BME280;5417;42.686;23.244;2023-05-20T13:42:06;94308.88;;;20.84;nan
10732;BME280;5417;42.686;23.244;2023-05-20T13:45:27;94301.84;;;20.76;nan
10732;BME280;5417;42.686;23.244;2023-05-20T13:47:47;94300.41;;;20.73;nan
10732;BME280;5417;42.686;23.244;2023-05-20T13:50:15;94297.50;;;20.68;nan
10732;BME280;5417;42.686;23.244;2023-05-20T13:52:44;94306.78;;;20.58;nan
10732;BME280;5417;42.686;23.244;2023-05-20T14:02:14;94287.41;;;20.36;nan
10732;BME280;5417;42.686;23.244;2023-05-20T14:08:12;94273.75;;;20.17;nan
10732;BME280;5417;42.686;23.244;2023-05-20T14:10:41;94270.38;;;20.24;nan
10732;BME280;5417;42.686;23.244;2023-05-20T14:13:08;94272.63;;;20.27;nan
10732;BME280;5417;42.686;23.244;2023-05-20T14:15:35;94274.47;;;20.26;nan
10732;BME280;5417;42.686;23.244;2023-05-20T14:18:03;94273.75;;;20.32;nan
10732;BME280;5417;42.686;23.244;2023-05-20T14:20:58;94262.06;;;20.41;nan
10732;BME280;5417;42.686;23.244;2023-05-20T14:23:29;94280.91;;;20.38;nan
10732;BME280;5417;42.686;23.244;2023-05-20T14:26:22;94268.09;;;20.35;nan
10732;BME280;5417;42.686;23.244;2023-05-20T14:29:51;94262.31;;;20.46;nan
10732;BME280;5417;42.686;23.244;2023-05-20T14:32:04;94278.13;;;20.40;nan
10732;BME280;5417;42.686;23.244;2023-05-20T14:35:15;94252.22;;;20.35;nan
10732;BME280;5417;42.686;23.244;2023-05-20T14:38:36;94280.91;;;20.38;nan
10732;BME280;5417;42.686;23.244;2023-05-20T14:44:14;94255.22;;;20.47;nan
10732;BME280;5417;42.686;23.244;2023-05-20T14:46:41;94253.06;;;20.57;nan
10732;BME280;5417;42.686;23.244;2023-05-20T14:49:10;94255.66;;;20.51;nan
10732;BME280;5417;42.686;23.244;2023-05-20T15:18:16;94254.19;;;20.12;nan
10732;BME280;5417;42.686;23.244;2023-05-20T15:21:41;94241.72;;;20.06;nan
10732;BME280;5417;42.686;23.244;2023-05-20T15:23:57;94245.19;;;20.06;nan
10732;BME280;5417;42.686;23.244;2023-05-20T15:26:24;94243.53;;;20.05;nan
10732;BME280;5417;42.686;23.244;2023-05-20T15:55:24;94228.56;;;20.12;nan
10732;BME280;5417;42.686;23.244;2023-05-20T15:57:51;94235.13;;;20.16;nan
10732;BME280;5417;42.686;23.244;2023-05-20T16:00:19;94238.41;;;20.18;nan
10732;BME280;5417;42.686;23.244;2023-05-20T16:03:41;94227.69;;;20.27;nan
10732;BME280;5417;42.686;23.244;2023-05-20T16:29:56;94244.41;;;19.76;nan
10732;BME280;5417;42.686;23.244;2023-05-20T16:36:08;94250.34;;;19.78;nan
10732;BME280;5417;42.686;23.244;2023-05-20T16:38:36;94251.25;;;19.85;nan
10732;BME280;5417;42.686;23.244;2023-05-20T16:41:03;94247.50;;;19.65;nan
10732;BME280;5417;42.686;23.244;2023-05-20T16:43:30;94250.97;;;19.66;nan
10732;BME280;5417;42.686;23.244;2023-05-20T16:45:58;94244.50;;;19.68;nan
10732;BME280;5417;42.686;23.244;2023-05-20T16:48:25;94252.44;;;19.68;nan
10732;BME280;5417;42.686;23.244;2023-05-20T16:50:52;94263.44;;;19.72;nan
10732;BME280;5417;42.686;23.244;2023-05-20T16:53:20;94261.97;;;19.69;nan
10732;BME280;5417;42.686;23.244;2023-05-20T17:05:35;94261.19;;;19.54;nan
10732;BME280;5417;42.686;23.244;2023-05-20T17:08:25;94262.63;;;19.57;nan
10732;BME280;5417;42.686;23.244;2023-05-20T17:22:17;94268.75;;;19.19;nan
10732;BME280;5417;42.686;23.244;2023-05-20T17:36:06;94272.63;;;19.32;nan
10732;BME280;5417;42.686;23.244;2023-05-20T17:38:34;94280.19;;;19.49;nan
10732;BME280;5417;42.686;23.244;2023-05-20T17:41:01;94283.53;;;19.43;nan
10732;BME280;5417;42.686;23.244;2023-05-20T17:43:28;94282.09;;;19.41;nan
10732;BME280;5417;42.686;23.244;2023-05-20T17:46:55;94287.38;;;19.26;nan
10732;BME280;5417;42.686;23.244;2023-05-20T17:49:58;94294.56;;;19.32;nan
10732;BME280;5417;42.686;23.244;2023-05-20T17:52:17;94295.28;;;19.26;nan
10732;BME280;5417;42.686;23.244;2023-05-20T17:54:46;94293.63;;;19.25;nan
10732;BME280;5417;42.686;23.244;2023-05-20T17:57:12;94302.06;;;19.20;nan
10732;BME280;5417;42.686;23.244;2023-05-20T17:59:39;94298.00;;;19.33;nan
10732;BME280;5417;42.686;23.244;2023-05-20T18:02:06;94296.78;;;19.20;nan
10732;BME280;5417;42.686;23.244;2023-05-20T18:04:33;94297.97;;;19.18;nan
10732;BME280;5417;42.686;23.244;2023-05-20T18:10:47;94293.88;;;19.15;nan
10732;BME280;5417;42.686;23.244;2023-05-20T18:13:14;94302.03;;;19.06;nan
10732;BME280;5417;42.686;23.244;2023-05-20T18:16:35;94295.84;;;18.99;nan
10732;BME280;5417;42.686;23.244;2023-05-20T18:18:56;94288.75;;;18.99;nan
10732;BME280;5417;42.686;23.244;2023-05-20T18:21:23;94293.03;;;19.00;nan
10732;BME280;5417;42.686;23.244;2023-05-20T18:23:50;94285.53;;;18.89;nan
10732;BME280;5417;42.686;23.244;2023-05-20T18:29:21;94289.19;;;18.88;nan
10732;BME280;5417;42.686;23.244;2023-05-20T18:31:49;94298.38;;;18.92;nan
10732;BME280;5417;42.686;23.244;2023-05-20T18:34:21;94300.91;;;18.85;nan
10732;BME280;5417;42.686;23.244;2023-05-20T18:37:14;94302.78;;;18.77;nan
10732;BME280;5417;42.686;23.244;2023-05-20T18:40:07;94299.03;;;18.71;nan
10732;BME280;5417;42.686;23.244;2023-05-20T18:48:41;94305.84;;;18.57;nan